createdAt,value
2019-03-29T00:55:59.812Z,9.70
2019-03-29T02:34:28.453Z,6.70
2019-03-29T02:40:10.099Z,5.90
2019-03-29T02:42:56.484Z,6.58
2019-03-29T02:45:43.919Z,6.55
2019-03-29T02:48:30.338Z,6.83
2019-03-29T02:51:16.858Z,6.78
2019-03-29T02:54:03.594Z,6.30
2019-03-29T02:56:51.141Z,7.47
2019-03-29T02:59:37.679Z,7.47
2019-03-29T03:05:10.598Z,7.80
2019-03-29T03:07:57.034Z,7.70
2019-03-29T03:10:44.256Z,7.60
2019-03-29T03:16:24.788Z,6.83
2019-03-29T03:19:13.268Z,7.08
2019-03-29T03:22:00.719Z,7.37
2019-03-29T03:24:47.177Z,6.62
2019-03-29T03:27:34.436Z,7.95
2019-03-29T03:30:20.928Z,7.62
2019-03-29T03:33:08.476Z,7.03
2019-03-29T03:38:46.116Z,7.10
2019-03-29T03:41:33.205Z,6.85
2019-03-29T03:44:19.603Z,6.17
2019-03-29T03:49:55.370Z,6.90
2019-03-29T03:52:41.900Z,6.58
2019-03-29T04:01:14.710Z,7.30
2019-03-29T04:04:01.972Z,6.75
2019-03-29T04:09:49.394Z,7.75
2019-03-29T04:15:15.400Z,11.53
2019-03-29T04:18:01.995Z,10.43
2019-03-29T04:20:49.412Z,7.78
2019-03-29T04:23:36.601Z,7.58
2019-03-29T04:26:23.070Z,7.75
2019-03-29T04:29:10.665Z,6.55
2019-03-29T04:31:57.748Z,6.37
2019-03-29T04:34:45.005Z,6.83
2019-03-29T04:37:31.589Z,8.20
2019-03-29T04:40:18.997Z,9.38
2019-03-29T04:43:05.755Z,10.93
2019-03-29T04:45:53.070Z,12.65
2019-03-29T04:48:39.561Z,12.03
2019-03-29T04:51:26.024Z,12.00
2019-03-29T04:54:13.321Z,10.10
2019-03-29T04:57:00.675Z,9.73
2019-03-29T04:59:47.148Z,10.95
2019-03-29T05:02:34.414Z,10.53
2019-03-29T05:05:21.472Z,10.23
2019-03-29T05:08:07.946Z,11.00
2019-03-29T05:10:53.109Z,11.25
2019-03-29T05:44:40.828Z,8.15
2019-03-29T07:13:58.309Z,7.67
2019-03-29T07:16:46.612Z,7.17
2019-03-29T07:34:42.308Z,9.48
2019-03-29T07:37:30.633Z,9.60
2019-03-29T07:55:49.956Z,13.30
2019-03-29T08:22:55.146Z,33.83
2019-03-29T08:25:43.484Z,35.15
2019-03-29T08:28:30.248Z,36.23
2019-03-29T08:31:16.786Z,35.88
2019-03-29T08:34:03.426Z,38.55
2019-03-29T08:36:50.677Z,40.12
2019-03-29T08:39:37.134Z,40.52
2019-03-29T08:42:24.549Z,39.78
2019-03-29T08:45:11.875Z,40.78
2019-03-29T08:47:58.384Z,39.08
2019-03-29T08:50:45.618Z,40.88
2019-03-29T08:53:32.985Z,38.23
2019-03-29T08:56:19.398Z,42.53
2019-03-29T08:59:05.916Z,41.55
2019-03-29T09:01:52.328Z,42.98
2019-03-29T09:04:39.508Z,40.30
2019-03-29T09:07:28.009Z,42.73
2019-03-29T09:10:14.954Z,45.00
2019-03-29T09:13:04.217Z,45.80
2019-03-29T09:15:32.676Z,45.55
2019-03-29T09:18:02.138Z,47.93
2019-03-29T09:20:50.807Z,49.58
2019-03-29T09:44:57.129Z,52.55
2019-03-29T09:47:45.535Z,47.08
2019-03-29T10:55:03.563Z,54.67
2019-03-29T10:57:51.959Z,54.40
2019-03-29T11:03:50.317Z,59.67
2019-03-29T11:22:06.120Z,59.90
2019-03-29T11:24:54.613Z,52.23
2019-03-29T12:14:10.480Z,43.08
2019-03-29T12:16:39.929Z,42.65
2019-03-29T12:19:28.342Z,42.83
2019-03-29T12:25:40.311Z,42.17
2019-03-29T12:46:54.273Z,41.60
2019-03-29T12:49:42.683Z,42.05
2019-03-29T13:20:23.785Z,44.77
2019-03-29T13:23:10.225Z,42.80
2019-03-29T13:25:57.421Z,46.77
2019-03-29T13:28:43.838Z,47.62
2019-03-29T13:31:30.736Z,45.25
2019-03-29T13:34:17.409Z,42.93
2019-03-29T13:37:04.836Z,44.40
2019-03-29T13:39:51.280Z,46.08
2019-03-29T13:42:20.752Z,45.78
2019-03-29T13:44:50.153Z,44.95
2019-03-29T13:47:38.555Z,45.45
2019-03-29T13:50:26.890Z,44.85
2019-03-29T13:59:43.664Z,46.40
2019-03-29T14:02:37.054Z,46.68
2019-03-29T15:10:17.960Z,43.45
2019-03-29T15:13:06.511Z,47.23
2019-03-29T17:04:06.408Z,31.57
2019-03-29T17:06:59.721Z,32.67
2019-03-29T17:49:58.477Z,34.48
2019-03-29T17:52:46.123Z,40.00
2019-03-29T17:55:33.782Z,36.35
2019-03-29T19:28:08.725Z,48.58
2019-03-29T19:30:57.892Z,47.75
2019-03-29T19:33:44.809Z,46.28
2019-03-29T19:36:31.863Z,42.05
2019-03-29T19:39:18.373Z,43.85
2019-03-29T19:42:05.871Z,41.73
2019-03-29T19:50:24.225Z,41.63
2019-03-29T19:53:11.424Z,44.80
2019-03-29T19:55:58.131Z,43.45
2019-03-29T19:58:44.844Z,44.75
2019-03-29T20:01:31.950Z,47.30
2019-03-29T20:04:18.369Z,43.98
2019-03-29T20:07:05.546Z,46.73
2019-03-29T20:18:40.721Z,43.20
2019-03-29T20:21:27.642Z,46.68
2019-03-29T20:24:14.710Z,45.03
2019-03-29T20:29:47.405Z,43.48
2019-03-29T20:32:34.197Z,43.60
2019-03-29T20:35:20.666Z,44.58
2019-03-29T20:38:08.151Z,45.55
2019-03-29T20:40:55.473Z,44.27
2019-03-29T20:43:42.989Z,47.30
2019-03-29T20:46:34.880Z,44.05
2019-03-29T20:49:18.945Z,40.85
2019-03-29T20:52:05.948Z,43.08
2019-03-29T20:54:53.161Z,42.25
2019-03-29T20:57:39.700Z,43.92
2019-03-29T21:00:26.149Z,45.98
2019-03-29T21:03:13.377Z,49.90
2019-03-29T21:06:00.573Z,46.10
2019-03-29T21:08:48.295Z,46.80
2019-03-29T21:11:35.325Z,50.35
2019-03-29T21:17:11.539Z,47.90
2019-03-29T21:19:58.827Z,52.33
2019-03-29T21:22:45.812Z,50.17
2019-03-29T21:25:33.161Z,52.38
2019-03-29T21:28:20.431Z,49.73
2019-03-29T21:31:07.715Z,50.05
2019-03-29T21:33:54.950Z,49.48
2019-03-29T21:36:42.377Z,50.35
2019-03-29T21:39:31.247Z,47.08
2019-03-29T21:42:17.128Z,50.63
2019-03-29T21:45:04.590Z,46.70
2019-03-29T21:48:04.679Z,54.48
2019-03-29T21:50:39.969Z,49.42
2019-03-29T21:53:27.402Z,50.30
2019-03-29T21:56:14.584Z,52.80
2019-03-29T22:01:50.269Z,48.28
2019-03-29T22:04:37.661Z,49.13
2019-03-29T22:07:24.573Z,52.35
2019-03-29T22:10:11.035Z,51.90
2019-03-29T22:12:59.004Z,51.10
2019-03-29T22:15:45.815Z,47.30
2019-03-29T22:18:38.179Z,51.70
2019-03-29T22:21:20.816Z,52.08
2019-03-29T22:24:07.835Z,48.73
2019-03-29T22:26:53.120Z,52.13
2019-03-29T23:59:24.998Z,45.17
